sensor_id;sensor_type;location;lat;lon;timestamp;temperature;humidity
12335;DHT22;6233;51.560;9.986;2023-04-03T00:00:27;2.10;99.90
12335;DHT22;6233;51.560;9.986;2023-04-03T00:03:29;2.00;99.90
12335;DHT22;6233;51.560;9.986;2023-04-03T00:06:31;2.00;99.90
12335;DHT22;6233;51.560;9.986;2023-04-03T00:09:33;1.90;99.90
12335;DHT22;6233;51.560;9.986;2023-04-03T00:12:35;1.90;99.90
12335;DHT22;6233;51.560;9.986;2023-04-03T00:15:37;1.90;99.90
12335;DHT22;6233;51.560;9.986;2023-04-03T00:18:39;1.80;99.90
12335;DHT22;6233;51.560;9.986;2023-04-03T00:21:41;1.70;99.90
12335;DHT22;6233;51.560;9.986;2023-04-03T00:24:43;1.70;99.90
12335;DHT22;6233;51.560;9.986;2023-04-03T00:27:45;1.70;99.90
12335;DHT22;6233;51.560;9.986;2023-04-03T00:30:49;1.70;99.90
12335;DHT22;6233;51.560;9.986;2023-04-03T00:33:51;1.70;99.90
12335;DHT22;6233;51.560;9.986;2023-04-03T00:36:53;1.60;99.90
12335;DHT22;6233;51.560;9.986;2023-04-03T00:39:55;1.50;99.90
12335;DHT22;6233;51.560;9.986;2023-04-03T00:42:58;1.50;99.90
12335;DHT22;6233;51.560;9.986;2023-04-03T00:46:00;1.50;99.90
12335;DHT22;6233;51.560;9.986;2023-04-03T00:49:02;1.40;99.90
12335;DHT22;6233;51.560;9.986;2023-04-03T00:52:06;1.40;99.90
12335;DHT22;6233;51.560;9.986;2023-04-03T00:55:10;1.30;99.90
12335;DHT22;6233;51.560;9.986;2023-04-03T00:58:15;1.30;99.90
12335;DHT22;6233;51.560;9.986;2023-04-03T01:01:21;1.30;99.90
12335;DHT22;6233;51.560;9.986;2023-04-03T01:04:34;1.30;99.90
12335;DHT22;6233;51.560;9.986;2023-04-03T01:07:38;1.20;99.90
12335;DHT22;6233;51.560;9.986;2023-04-03T01:10:40;1.20;99.90
12335;DHT22;6233;51.560;9.986;2023-04-03T01:13:42;1.10;99.90
12335;DHT22;6233;51.560;9.986;2023-04-03T01:16:52;1.10;99.90
12335;DHT22;6233;51.560;9.986;2023-04-03T01:23:50;1.00;99.90
12335;DHT22;6233;51.560;9.986;2023-04-03T01:26:54;1.00;99.90
12335;DHT22;6233;51.560;9.986;2023-04-03T01:29:56;0.90;99.90
12335;DHT22;6233;51.560;9.986;2023-04-03T01:32:57;1.00;99.90
12335;DHT22;6233;51.560;9.986;2023-04-03T01:36:00;0.90;99.90
12335;DHT22;6233;51.560;9.986;2023-04-03T01:39:02;0.90;99.90
12335;DHT22;6233;51.560;9.986;2023-04-03T01:42:04;0.90;99.90
12335;DHT22;6233;51.560;9.986;2023-04-03T01:45:06;0.80;99.90
12335;DHT22;6233;51.560;9.986;2023-04-03T01:48:08;0.80;99.90
12335;DHT22;6233;51.560;9.986;2023-04-03T01:51:10;0.70;99.90
12335;DHT22;6233;51.560;9.986;2023-04-03T01:54:12;0.60;99.90
12335;DHT22;6233;51.560;9.986;2023-04-03T01:57:13;0.60;99.90
12335;DHT22;6233;51.560;9.986;2023-04-03T02:00:16;0.70;99.90
12335;DHT22;6233;51.560;9.986;2023-04-03T02:03:18;0.60;99.90
12335;DHT22;6233;51.560;9.986;2023-04-03T02:06:20;0.50;99.90
12335;DHT22;6233;51.560;9.986;2023-04-03T02:09:21;0.50;99.90
12335;DHT22;6233;51.560;9.986;2023-04-03T02:12:23;0.50;99.90
12335;DHT22;6233;51.560;9.986;2023-04-03T02:15:25;0.50;99.90
12335;DHT22;6233;51.560;9.986;2023-04-03T02:18:27;0.50;99.90
12335;DHT22;6233;51.560;9.986;2023-04-03T02:21:29;0.40;99.90
12335;DHT22;6233;51.560;9.986;2023-04-03T02:24:32;0.40;99.90
12335;DHT22;6233;51.560;9.986;2023-04-03T02:27:33;0.30;99.90
12335;DHT22;6233;51.560;9.986;2023-04-03T02:30:35;0.30;99.90
12335;DHT22;6233;51.560;9.986;2023-04-03T02:33:37;0.30;99.90
12335;DHT22;6233;51.560;9.986;2023-04-03T02:36:39;0.30;99.90
12335;DHT22;6233;51.560;9.986;2023-04-03T02:39:41;0.30;99.90
12335;DHT22;6233;51.560;9.986;2023-04-03T02:42:43;0.30;99.90
12335;DHT22;6233;51.560;9.986;2023-04-03T02:45:44;0.30;99.90
12335;DHT22;6233;51.560;9.986;2023-04-03T02:48:46;0.20;99.90
12335;DHT22;6233;51.560;9.986;2023-04-03T02:51:48;0.20;99.90
12335;DHT22;6233;51.560;9.986;2023-04-03T02:54:49;0.30;99.90
12335;DHT22;6233;51.560;9.986;2023-04-03T02:57:51;0.30;99.90
12335;DHT22;6233;51.560;9.986;2023-04-03T03:00:53;0.30;99.90
12335;DHT22;6233;51.560;9.986;2023-04-03T03:03:55;0.20;99.90
12335;DHT22;6233;51.560;9.986;2023-04-03T03:06:57;0.20;99.90
12335;DHT22;6233;51.560;9.986;2023-04-03T03:09:59;0.20;99.90
12335;DHT22;6233;51.560;9.986;2023-04-03T03:13:01;0.20;99.90
12335;DHT22;6233;51.560;9.986;2023-04-03T03:16:03;0.10;99.90
12335;DHT22;6233;51.560;9.986;2023-04-03T03:19:05;0.00;99.90
12335;DHT22;6233;51.560;9.986;2023-04-03T03:22:08;0.10;99.90
12335;DHT22;6233;51.560;9.986;2023-04-03T03:25:09;0.00;99.90
12335;DHT22;6233;51.560;9.986;2023-04-03T03:28:11;0.00;99.90
12335;DHT22;6233;51.560;9.986;2023-04-03T03:31:13;0.00;99.90
12335;DHT22;6233;51.560;9.986;2023-04-03T03:34:16;0.00;99.90
12335;DHT22;6233;51.560;9.986;2023-04-03T03:37:18;0.00;99.90
12335;DHT22;6233;51.560;9.986;2023-04-03T03:40:22;0.00;99.90
12335;DHT22;6233;51.560;9.986;2023-04-03T03:43:23;-0.10;99.90
12335;DHT22;6233;51.560;9.986;2023-04-03T03:46:25;-0.10;99.90
12335;DHT22;6233;51.560;9.986;2023-04-03T03:49:27;-0.20;99.90
12335;DHT22;6233;51.560;9.986;2023-04-03T03:52:29;-0.30;99.90
12335;DHT22;6233;51.560;9.986;2023-04-03T03:55:31;-0.30;99.90
12335;DHT22;6233;51.560;9.986;2023-04-03T03:58:33;-0.30;99.90
12335;DHT22;6233;51.560;9.986;2023-04-03T04:01:35;-0.30;99.90
12335;DHT22;6233;51.560;9.986;2023-04-03T04:04:37;-0.40;99.90
12335;DHT22;6233;51.560;9.986;2023-04-03T04:07:38;-0.40;99.90
12335;DHT22;6233;51.560;9.986;2023-04-03T04:10:40;-0.30;99.90
12335;DHT22;6233;51.560;9.986;2023-04-03T04:13:42;-0.40;99.90
12335;DHT22;6233;51.560;9.986;2023-04-03T04:16:44;-0.50;99.90
12335;DHT22;6233;51.560;9.986;2023-04-03T04:19:45;-0.50;99.90
12335;DHT22;6233;51.560;9.986;2023-04-03T04:22:47;-0.40;99.90
12335;DHT22;6233;51.560;9.986;2023-04-03T04:25:49;-0.50;99.90
12335;DHT22;6233;51.560;9.986;2023-04-03T04:28:51;-0.50;99.90
12335;DHT22;6233;51.560;9.986;2023-04-03T04:31:52;-0.40;99.90
12335;DHT22;6233;51.560;9.986;2023-04-03T04:34:54;-0.40;99.90
12335;DHT22;6233;51.560;9.986;2023-04-03T04:37:56;-0.50;99.90
12335;DHT22;6233;51.560;9.986;2023-04-03T04:40:58;-0.60;99.90
12335;DHT22;6233;51.560;9.986;2023-04-03T04:44:00;-0.60;99.90
12335;DHT22;6233;51.560;9.986;2023-04-03T04:47:01;-0.60;99.90
12335;DHT22;6233;51.560;9.986;2023-04-03T04:50:04;-0.60;99.90
12335;DHT22;6233;51.560;9.986;2023-04-03T04:53:06;-0.60;99.90
12335;DHT22;6233;51.560;9.986;2023-04-03T04:56:08;-0.60;99.90
12335;DHT22;6233;51.560;9.986;2023-04-03T04:59:10;-0.60;99.90
12335;DHT22;6233;51.560;9.986;2023-04-03T05:02:11;-0.60;99.90
12335;DHT22;6233;51.560;9.986;2023-04-03T05:05:13;-0.70;99.90
12335;DHT22;6233;51.560;9.986;2023-04-03T05:08:16;-0.60;99.90
12335;DHT22;6233;51.560;9.986;2023-04-03T05:11:17;-0.70;99.90
12335;DHT22;6233;51.560;9.986;2023-04-03T05:14:20;-0.60;99.90
12335;DHT22;6233;51.560;9.986;2023-04-03T05:17:21;-0.60;99.90
12335;DHT22;6233;51.560;9.986;2023-04-03T05:20:23;-0.60;99.90
12335;DHT22;6233;51.560;9.986;2023-04-03T05:23:25;-0.60;99.90
12335;DHT22;6233;51.560;9.986;2023-04-03T05:26:27;-0.50;99.90
12335;DHT22;6233;51.560;9.986;2023-04-03T05:29:29;-0.50;99.90
12335;DHT22;6233;51.560;9.986;2023-04-03T05:32:31;-0.60;99.90
12335;DHT22;6233;51.560;9.986;2023-04-03T05:35:36;-0.50;99.90
12335;DHT22;6233;51.560;9.986;2023-04-03T05:38:38;-0.40;99.90
12335;DHT22;6233;51.560;9.986;2023-04-03T05:41:41;-0.40;99.90
12335;DHT22;6233;51.560;9.986;2023-04-03T05:44:42;-0.30;99.90
12335;DHT22;6233;51.560;9.986;2023-04-03T05:47:44;0.10;99.90
12335;DHT22;6233;51.560;9.986;2023-04-03T05:50:47;0.40;99.90
12335;DHT22;6233;51.560;9.986;2023-04-03T05:53:51;0.60;99.90
12335;DHT22;6233;51.560;9.986;2023-04-03T05:56:54;1.50;99.90
12335;DHT22;6233;51.560;9.986;2023-04-03T05:59:56;2.50;99.90
12335;DHT22;6233;51.560;9.986;2023-04-03T06:02:57;3.60;99.90
12335;DHT22;6233;51.560;9.986;2023-04-03T06:06:02;4.50;99.90
12335;DHT22;6233;51.560;9.986;2023-04-03T06:09:05;5.20;99.90
12335;DHT22;6233;51.560;9.986;2023-04-03T06:12:06;5.50;99.90
12335;DHT22;6233;51.560;9.986;2023-04-03T06:15:08;5.80;99.90
12335;DHT22;6233;51.560;9.986;2023-04-03T06:18:11;5.80;99.90
12335;DHT22;6233;51.560;9.986;2023-04-03T06:21:13;5.70;99.90
12335;DHT22;6233;51.560;9.986;2023-04-03T06:24:16;6.00;99.90
12335;DHT22;6233;51.560;9.986;2023-04-03T06:27:18;6.50;99.90
12335;DHT22;6233;51.560;9.986;2023-04-03T06:30:19;6.20;99.90
12335;DHT22;6233;51.560;9.986;2023-04-03T06:33:21;6.90;99.90
12335;DHT22;6233;51.560;9.986;2023-04-03T06:36:23;6.60;99.90
12335;DHT22;6233;51.560;9.986;2023-04-03T06:39:25;7.10;99.90
12335;DHT22;6233;51.560;9.986;2023-04-03T06:42:26;7.30;99.90
12335;DHT22;6233;51.560;9.986;2023-04-03T06:45:28;7.30;99.90
12335;DHT22;6233;51.560;9.986;2023-04-03T06:48:30;6.90;99.90
12335;DHT22;6233;51.560;9.986;2023-04-03T06:51:32;6.70;99.90
12335;DHT22;6233;51.560;9.986;2023-04-03T06:54:34;6.40;99.90
12335;DHT22;6233;51.560;9.986;2023-04-03T06:57:41;6.70;99.90
12335;DHT22;6233;51.560;9.986;2023-04-03T07:00:42;6.20;99.90
12335;DHT22;6233;51.560;9.986;2023-04-03T07:03:45;5.80;99.90
12335;DHT22;6233;51.560;9.986;2023-04-03T07:06:47;5.30;99.90
12335;DHT22;6233;51.560;9.986;2023-04-03T07:17:55;5.60;99.90
12335;DHT22;6233;51.560;9.986;2023-04-03T07:20:57;5.80;99.90
12335;DHT22;6233;51.560;9.986;2023-04-03T07:23:59;6.10;99.90
12335;DHT22;6233;51.560;9.986;2023-04-03T07:27:02;6.20;99.90
12335;DHT22;6233;51.560;9.986;2023-04-03T07:30:10;6.10;99.90
12335;DHT22;6233;51.560;9.986;2023-04-03T07:33:13;6.20;99.90
12335;DHT22;6233;51.560;9.986;2023-04-03T07:36:18;6.00;99.90
12335;DHT22;6233;51.560;9.986;2023-04-03T07:39:21;5.90;99.90
12335;DHT22;6233;51.560;9.986;2023-04-03T07:42:23;6.00;99.90
12335;DHT22;6233;51.560;9.986;2023-04-03T07:45:24;6.00;99.90
12335;DHT22;6233;51.560;9.986;2023-04-03T07:48:29;5.70;99.90
12335;DHT22;6233;51.560;9.986;2023-04-03T07:51:31;5.60;99.90
12335;DHT22;6233;51.560;9.986;2023-04-03T07:58:18;6.10;99.90
12335;DHT22;6233;51.560;9.986;2023-04-03T08:01:20;5.70;99.90
12335;DHT22;6233;51.560;9.986;2023-04-03T08:04:22;5.40;99.90
12335;DHT22;6233;51.560;9.986;2023-04-03T08:07:30;5.20;99.90
12335;DHT22;6233;51.560;9.986;2023-04-03T08:10:38;5.90;99.90
12335;DHT22;6233;51.560;9.986;2023-04-03T08:13:40;5.60;99.90
12335;DHT22;6233;51.560;9.986;2023-04-03T08:16:44;5.70;99.90
12335;DHT22;6233;51.560;9.986;2023-04-03T08:19:47;6.20;99.90
12335;DHT22;6233;51.560;9.986;2023-04-03T08:22:48;6.30;99.90
12335;DHT22;6233;51.560;9.986;2023-04-03T08:25:50;6.70;99.90
12335;DHT22;6233;51.560;9.986;2023-04-03T08:28:52;7.00;99.90
12335;DHT22;6233;51.560;9.986;2023-04-03T08:31:54;7.00;99.90
12335;DHT22;6233;51.560;9.986;2023-04-03T08:34:56;7.00;99.90
12335;DHT22;6233;51.560;9.986;2023-04-03T08:37:58;6.70;99.90
12335;DHT22;6233;51.560;9.986;2023-04-03T08:44:48;6.40;99.90
12335;DHT22;6233;51.560;9.986;2023-04-03T08:48:06;5.90;99.90
12335;DHT22;6233;51.560;9.986;2023-04-03T08:51:17;5.40;99.90
12335;DHT22;6233;51.560;9.986;2023-04-03T08:54:33;5.60;99.90
12335;DHT22;6233;51.560;9.986;2023-04-03T08:57:41;5.90;99.90
12335;DHT22;6233;51.560;9.986;2023-04-03T09:04:14;5.70;99.90
12335;DHT22;6233;51.560;9.986;2023-04-03T09:07:25;5.50;99.90
12335;DHT22;6233;51.560;9.986;2023-04-03T09:10:44;5.80;99.90
12335;DHT22;6233;51.560;9.986;2023-04-03T09:14:15;6.20;99.90
12335;DHT22;6233;51.560;9.986;2023-04-03T09:17:34;6.60;99.90
12335;DHT22;6233;51.560;9.986;2023-04-03T09:23:59;7.30;99.90
12335;DHT22;6233;51.560;9.986;2023-04-03T09:27:05;7.10;99.90
12335;DHT22;6233;51.560;9.986;2023-04-03T09:30:22;7.30;99.90
12335;DHT22;6233;51.560;9.986;2023-04-03T09:33:25;7.10;99.90
12335;DHT22;6233;51.560;9.986;2023-04-03T09:36:48;6.80;99.90
12335;DHT22;6233;51.560;9.986;2023-04-03T09:39:56;6.90;99.90
12335;DHT22;6233;51.560;9.986;2023-04-03T09:43:00;6.80;99.90
12335;DHT22;6233;51.560;9.986;2023-04-03T09:49:26;5.80;99.90
12335;DHT22;6233;51.560;9.986;2023-04-03T09:52:28;5.30;99.90
12335;DHT22;6233;51.560;9.986;2023-04-03T09:55:30;5.50;99.90
12335;DHT22;6233;51.560;9.986;2023-04-03T09:58:40;6.00;99.90
12335;DHT22;6233;51.560;9.986;2023-04-03T10:02:00;5.90;99.90
12335;DHT22;6233;51.560;9.986;2023-04-03T10:12:29;6.20;99.90
12335;DHT22;6233;51.560;9.986;2023-04-03T10:15:39;5.60;99.90
12335;DHT22;6233;51.560;9.986;2023-04-03T10:18:55;5.40;99.90
12335;DHT22;6233;51.560;9.986;2023-04-03T10:22:03;5.50;99.90
12335;DHT22;6233;51.560;9.986;2023-04-03T10:25:24;6.00;99.90
12335;DHT22;6233;51.560;9.986;2023-04-03T10:39:33;5.70;99.90
12335;DHT22;6233;51.560;9.986;2023-04-03T10:42:50;5.70;99.90
12335;DHT22;6233;51.560;9.986;2023-04-03T10:56:26;5.50;99.90
12335;DHT22;6233;51.560;9.986;2023-04-03T10:59:59;5.50;99.90
12335;DHT22;6233;51.560;9.986;2023-04-03T11:03:14;5.60;99.90
12335;DHT22;6233;51.560;9.986;2023-04-03T11:06:18;5.40;99.90
12335;DHT22;6233;51.560;9.986;2023-04-03T11:09:28;5.30;99.90
12335;DHT22;6233;51.560;9.986;2023-04-03T11:12:38;5.10;99.90
12335;DHT22;6233;51.560;9.986;2023-04-03T11:15:44;5.00;99.90
12335;DHT22;6233;51.560;9.986;2023-04-03T11:19:11;5.10;99.90
12335;DHT22;6233;51.560;9.986;2023-04-03T11:22:35;5.20;99.90
12335;DHT22;6233;51.560;9.986;2023-04-03T11:25:41;5.40;99.90
12335;DHT22;6233;51.560;9.986;2023-04-03T11:28:46;5.30;99.90
12335;DHT22;6233;51.560;9.986;2023-04-03T11:32:12;5.30;99.90
12335;DHT22;6233;51.560;9.986;2023-04-03T11:35:17;5.20;99.90
12335;DHT22;6233;51.560;9.986;2023-04-03T11:38:24;5.30;99.90
12335;DHT22;6233;51.560;9.986;2023-04-03T11:41:30;5.50;99.90
12335;DHT22;6233;51.560;9.986;2023-04-03T11:44:35;5.40;99.90
12335;DHT22;6233;51.560;9.986;2023-04-03T11:47:57;5.40;99.90
12335;DHT22;6233;51.560;9.986;2023-04-03T11:54:44;5.70;99.90
12335;DHT22;6233;51.560;9.986;2023-04-03T11:58:04;5.80;99.90
12335;DHT22;6233;51.560;9.986;2023-04-03T12:01:11;5.80;99.90
12335;DHT22;6233;51.560;9.986;2023-04-03T12:04:14;5.90;99.90
12335;DHT22;6233;51.560;9.986;2023-04-03T12:07:18;5.70;99.90
12335;DHT22;6233;51.560;9.986;2023-04-03T12:10:21;5.60;99.90
12335;DHT22;6233;51.560;9.986;2023-04-03T12:13:32;5.50;99.90
12335;DHT22;6233;51.560;9.986;2023-04-03T12:19:39;5.60;99.90
12335;DHT22;6233;51.560;9.986;2023-04-03T12:23:24;5.80;99.90
12335;DHT22;6233;51.560;9.986;2023-04-03T12:26:28;5.80;99.90
12335;DHT22;6233;51.560;9.986;2023-04-03T12:41:18;5.80;99.90
12335;DHT22;6233;51.560;9.986;2023-04-03T12:44:56;5.90;99.90
12335;DHT22;6233;51.560;9.986;2023-04-03T12:48:17;5.80;99.90
12335;DHT22;6233;51.560;9.986;2023-04-03T12:54:38;5.70;99.90
12335;DHT22;6233;51.560;9.986;2023-04-03T12:57:44;5.70;99.90
12335;DHT22;6233;51.560;9.986;2023-04-03T13:00:45;5.70;99.90
12335;DHT22;6233;51.560;9.986;2023-04-03T13:03:53;5.60;99.90
12335;DHT22;6233;51.560;9.986;2023-04-03T13:06:56;5.60;99.90
12335;DHT22;6233;51.560;9.986;2023-04-03T13:10:13;5.80;99.90
12335;DHT22;6233;51.560;9.986;2023-04-03T13:13:16;5.90;99.90
12335;DHT22;6233;51.560;9.986;2023-04-03T13:16:18;6.10;99.90
12335;DHT22;6233;51.560;9.986;2023-04-03T13:19:35;6.00;99.90
12335;DHT22;6233;51.560;9.986;2023-04-03T13:22:40;5.70;99.90
12335;DHT22;6233;51.560;9.986;2023-04-03T13:25:47;5.80;99.90
12335;DHT22;6233;51.560;9.986;2023-04-03T13:28:50;5.70;99.90
12335;DHT22;6233;51.560;9.986;2023-04-03T13:31:55;5.70;99.90
12335;DHT22;6233;51.560;9.986;2023-04-03T13:34:58;5.80;99.90
12335;DHT22;6233;51.560;9.986;2023-04-03T13:41:25;5.70;99.90
12335;DHT22;6233;51.560;9.986;2023-04-03T13:44:32;5.60;99.90
12335;DHT22;6233;51.560;9.986;2023-04-03T13:47:39;5.50;99.90
12335;DHT22;6233;51.560;9.986;2023-04-03T13:50:57;5.50;99.90
12335;DHT22;6233;51.560;9.986;2023-04-03T13:54:01;5.70;99.90
12335;DHT22;6233;51.560;9.986;2023-04-03T13:57:15;5.60;99.90
12335;DHT22;6233;51.560;9.986;2023-04-03T14:00:47;5.60;99.90
12335;DHT22;6233;51.560;9.986;2023-04-03T14:03:58;5.60;99.90
12335;DHT22;6233;51.560;9.986;2023-04-03T14:07:00;5.50;99.90
12335;DHT22;6233;51.560;9.986;2023-04-03T14:10:02;5.40;99.90
12335;DHT22;6233;51.560;9.986;2023-04-03T14:13:04;5.50;99.90
12335;DHT22;6233;51.560;9.986;2023-04-03T14:16:14;5.60;99.90
12335;DHT22;6233;51.560;9.986;2023-04-03T14:19:20;5.60;99.90
12335;DHT22;6233;51.560;9.986;2023-04-03T14:22:30;5.60;99.90
12335;DHT22;6233;51.560;9.986;2023-04-03T14:25:48;5.60;99.90
12335;DHT22;6233;51.560;9.986;2023-04-03T14:28:52;5.50;99.90
12335;DHT22;6233;51.560;9.986;2023-04-03T14:31:54;5.40;99.90
12335;DHT22;6233;51.560;9.986;2023-04-03T14:35:47;5.20;99.90
12335;DHT22;6233;51.560;9.986;2023-04-03T14:38:50;5.10;99.90
12335;DHT22;6233;51.560;9.986;2023-04-03T14:41:52;5.10;99.90
12335;DHT22;6233;51.560;9.986;2023-04-03T14:44:54;5.10;99.90
12335;DHT22;6233;51.560;9.986;2023-04-03T14:47:56;5.20;99.90
12335;DHT22;6233;51.560;9.986;2023-04-03T14:50:59;5.30;99.90
12335;DHT22;6233;51.560;9.986;2023-04-03T14:54:13;5.30;99.90
12335;DHT22;6233;51.560;9.986;2023-04-03T15:01:39;5.30;99.90
12335;DHT22;6233;51.560;9.986;2023-04-03T15:04:41;5.30;99.90
12335;DHT22;6233;51.560;9.986;2023-04-03T15:07:47;5.30;99.90
12335;DHT22;6233;51.560;9.986;2023-04-03T15:10:50;5.30;99.90
12335;DHT22;6233;51.560;9.986;2023-04-03T15:13:54;5.30;99.90
12335;DHT22;6233;51.560;9.986;2023-04-03T15:16:56;5.40;99.90
12335;DHT22;6233;51.560;9.986;2023-04-03T15:20:40;5.40;99.90
12335;DHT22;6233;51.560;9.986;2023-04-03T15:23:35;5.50;99.90
12335;DHT22;6233;51.560;9.986;2023-04-03T15:26:36;5.20;99.90
12335;DHT22;6233;51.560;9.986;2023-04-03T15:29:40;5.10;99.90
12335;DHT22;6233;51.560;9.986;2023-04-03T15:32:42;5.00;99.90
12335;DHT22;6233;51.560;9.986;2023-04-03T15:35:44;5.00;99.90
12335;DHT22;6233;51.560;9.986;2023-04-03T15:38:46;5.00;99.90
12335;DHT22;6233;51.560;9.986;2023-04-03T15:45:40;4.90;99.90
12335;DHT22;6233;51.560;9.986;2023-04-03T15:48:42;5.00;99.90
12335;DHT22;6233;51.560;9.986;2023-04-03T15:51:45;5.00;99.90
12335;DHT22;6233;51.560;9.986;2023-04-03T15:54:46;5.10;99.90
12335;DHT22;6233;51.560;9.986;2023-04-03T15:57:48;5.20;99.90
12335;DHT22;6233;51.560;9.986;2023-04-03T16:00:50;5.20;99.90
12335;DHT22;6233;51.560;9.986;2023-04-03T16:03:53;5.10;99.90
12335;DHT22;6233;51.560;9.986;2023-04-03T16:06:55;5.00;99.90
12335;DHT22;6233;51.560;9.986;2023-04-03T16:10:04;4.90;99.90
12335;DHT22;6233;51.560;9.986;2023-04-03T16:13:15;4.90;99.90
12335;DHT22;6233;51.560;9.986;2023-04-03T16:16:17;4.90;99.90
12335;DHT22;6233;51.560;9.986;2023-04-03T16:19:19;4.80;99.90
12335;DHT22;6233;51.560;9.986;2023-04-03T16:22:27;4.80;99.90
12335;DHT22;6233;51.560;9.986;2023-04-03T16:25:29;4.80;99.90
12335;DHT22;6233;51.560;9.986;2023-04-03T16:28:32;4.90;99.90
12335;DHT22;6233;51.560;9.986;2023-04-03T16:31:34;4.90;99.90
12335;DHT22;6233;51.560;9.986;2023-04-03T16:34:36;5.00;99.90
12335;DHT22;6233;51.560;9.986;2023-04-03T16:37:38;5.10;99.90
12335;DHT22;6233;51.560;9.986;2023-04-03T16:40:41;5.10;99.90
12335;DHT22;6233;51.560;9.986;2023-04-03T16:43:42;5.00;99.90
12335;DHT22;6233;51.560;9.986;2023-04-03T16:46:44;5.00;99.90
12335;DHT22;6233;51.560;9.986;2023-04-03T16:49:48;4.90;99.90
12335;DHT22;6233;51.560;9.986;2023-04-03T16:52:53;4.80;99.90
12335;DHT22;6233;51.560;9.986;2023-04-03T16:55:57;4.60;99.90
12335;DHT22;6233;51.560;9.986;2023-04-03T16:58:59;4.60;99.90
12335;DHT22;6233;51.560;9.986;2023-04-03T17:02:01;4.50;99.90
12335;DHT22;6233;51.560;9.986;2023-04-03T17:05:03;4.50;99.90
12335;DHT22;6233;51.560;9.986;2023-04-03T17:08:05;4.50;99.90
12335;DHT22;6233;51.560;9.986;2023-04-03T17:11:06;4.50;99.90
12335;DHT22;6233;51.560;9.986;2023-04-03T17:14:08;4.40;99.90
12335;DHT22;6233;51.560;9.986;2023-04-03T17:17:10;4.50;99.90
12335;DHT22;6233;51.560;9.986;2023-04-03T17:20:12;4.40;99.90
12335;DHT22;6233;51.560;9.986;2023-04-03T17:23:29;4.40;99.90
12335;DHT22;6233;51.560;9.986;2023-04-03T17:26:31;4.30;99.90
12335;DHT22;6233;51.560;9.986;2023-04-03T17:29:33;4.20;99.90
12335;DHT22;6233;51.560;9.986;2023-04-03T17:32:34;4.20;99.90
12335;DHT22;6233;51.560;9.986;2023-04-03T17:35:39;4.20;99.90
12335;DHT22;6233;51.560;9.986;2023-04-03T17:38:41;4.20;99.90
12335;DHT22;6233;51.560;9.986;2023-04-03T17:41:42;4.20;99.90
12335;DHT22;6233;51.560;9.986;2023-04-03T17:44:46;4.20;99.90
12335;DHT22;6233;51.560;9.986;2023-04-03T17:47:50;4.10;99.90
12335;DHT22;6233;51.560;9.986;2023-04-03T17:50:52;4.20;99.90
12335;DHT22;6233;51.560;9.986;2023-04-03T17:53:54;4.00;99.90
12335;DHT22;6233;51.560;9.986;2023-04-03T17:56:56;4.00;99.90
12335;DHT22;6233;51.560;9.986;2023-04-03T17:59:58;4.00;99.90
12335;DHT22;6233;51.560;9.986;2023-04-03T18:02:59;4.00;99.90
12335;DHT22;6233;51.560;9.986;2023-04-03T18:06:03;4.10;99.90
12335;DHT22;6233;51.560;9.986;2023-04-03T18:09:11;4.10;99.90
12335;DHT22;6233;51.560;9.986;2023-04-03T18:12:15;4.10;99.90
12335;DHT22;6233;51.560;9.986;2023-04-03T18:15:17;4.00;99.90
12335;DHT22;6233;51.560;9.986;2023-04-03T18:18:19;3.90;99.90
12335;DHT22;6233;51.560;9.986;2023-04-03T18:21:21;3.80;99.90
12335;DHT22;6233;51.560;9.986;2023-04-03T18:24:38;3.90;99.90
12335;DHT22;6233;51.560;9.986;2023-04-03T18:27:42;3.70;99.90
12335;DHT22;6233;51.560;9.986;2023-04-03T18:30:44;3.70;99.90
12335;DHT22;6233;51.560;9.986;2023-04-03T18:33:46;3.60;99.90
12335;DHT22;6233;51.560;9.986;2023-04-03T18:36:48;3.60;99.90
12335;DHT22;6233;51.560;9.986;2023-04-03T18:39:49;3.60;99.90
12335;DHT22;6233;51.560;9.986;2023-04-03T18:42:51;3.60;99.90
12335;DHT22;6233;51.560;9.986;2023-04-03T18:45:53;3.50;99.90
12335;DHT22;6233;51.560;9.986;2023-04-03T18:48:56;3.40;99.90
12335;DHT22;6233;51.560;9.986;2023-04-03T18:51:58;3.40;99.90
12335;DHT22;6233;51.560;9.986;2023-04-03T18:55:00;3.40;99.90
12335;DHT22;6233;51.560;9.986;2023-04-03T18:58:02;3.30;99.90
12335;DHT22;6233;51.560;9.986;2023-04-03T19:01:04;3.30;99.90
12335;DHT22;6233;51.560;9.986;2023-04-03T19:04:34;3.30;99.90
12335;DHT22;6233;51.560;9.986;2023-04-03T19:07:36;3.30;99.90
12335;DHT22;6233;51.560;9.986;2023-04-03T19:10:39;3.30;99.90
12335;DHT22;6233;51.560;9.986;2023-04-03T19:13:42;3.30;99.90
12335;DHT22;6233;51.560;9.986;2023-04-03T19:17:03;3.20;99.90
12335;DHT22;6233;51.560;9.986;2023-04-03T19:20:08;3.30;99.90
12335;DHT22;6233;51.560;9.986;2023-04-03T19:23:11;3.30;99.90
12335;DHT22;6233;51.560;9.986;2023-04-03T19:26:14;3.40;99.90
12335;DHT22;6233;51.560;9.986;2023-04-03T19:29:15;3.30;99.90
12335;DHT22;6233;51.560;9.986;2023-04-03T19:32:18;3.30;99.90
12335;DHT22;6233;51.560;9.986;2023-04-03T19:35:24;3.30;99.90
12335;DHT22;6233;51.560;9.986;2023-04-03T19:38:25;3.30;99.90
12335;DHT22;6233;51.560;9.986;2023-04-03T19:41:30;3.20;99.90
12335;DHT22;6233;51.560;9.986;2023-04-03T19:44:35;3.30;99.90
12335;DHT22;6233;51.560;9.986;2023-04-03T19:47:37;3.20;99.90
12335;DHT22;6233;51.560;9.986;2023-04-03T19:50:39;3.20;99.90
12335;DHT22;6233;51.560;9.986;2023-04-03T19:53:41;3.20;99.90
12335;DHT22;6233;51.560;9.986;2023-04-03T19:56:43;3.20;99.90
12335;DHT22;6233;51.560;9.986;2023-04-03T19:59:44;3.20;99.90
12335;DHT22;6233;51.560;9.986;2023-04-03T20:02:46;3.20;99.90
12335;DHT22;6233;51.560;9.986;2023-04-03T20:05:48;3.10;99.90
12335;DHT22;6233;51.560;9.986;2023-04-03T20:08:51;3.20;99.90
12335;DHT22;6233;51.560;9.986;2023-04-03T20:11:54;3.20;99.90
12335;DHT22;6233;51.560;9.986;2023-04-03T20:14:58;3.20;99.90
12335;DHT22;6233;51.560;9.986;2023-04-03T20:18:00;3.20;99.90
12335;DHT22;6233;51.560;9.986;2023-04-03T20:21:04;3.10;99.90
12335;DHT22;6233;51.560;9.986;2023-04-03T20:24:06;3.10;99.90
12335;DHT22;6233;51.560;9.986;2023-04-03T20:27:12;3.10;99.90
12335;DHT22;6233;51.560;9.986;2023-04-03T20:30:28;3.00;99.90
12335;DHT22;6233;51.560;9.986;2023-04-03T20:33:30;3.00;99.90
12335;DHT22;6233;51.560;9.986;2023-04-03T20:36:32;3.00;99.90
12335;DHT22;6233;51.560;9.986;2023-04-03T20:39:35;3.00;99.90
12335;DHT22;6233;51.560;9.986;2023-04-03T20:42:37;2.90;99.90
12335;DHT22;6233;51.560;9.986;2023-04-03T20:45:39;2.90;99.90
12335;DHT22;6233;51.560;9.986;2023-04-03T20:48:41;2.80;99.90
12335;DHT22;6233;51.560;9.986;2023-04-03T20:51:42;2.80;99.90
12335;DHT22;6233;51.560;9.986;2023-04-03T20:54:44;2.70;99.90
12335;DHT22;6233;51.560;9.986;2023-04-03T20:57:46;2.70;99.90
12335;DHT22;6233;51.560;9.986;2023-04-03T21:00:55;2.60;99.90
12335;DHT22;6233;51.560;9.986;2023-04-03T21:04:07;2.60;99.90
12335;DHT22;6233;51.560;9.986;2023-04-03T21:22:10;2.30;99.90
12335;DHT22;6233;51.560;9.986;2023-04-03T21:25:12;2.30;99.90
12335;DHT22;6233;51.560;9.986;2023-04-03T21:28:13;2.20;99.90
12335;DHT22;6233;51.560;9.986;2023-04-03T21:31:16;2.20;99.90
12335;DHT22;6233;51.560;9.986;2023-04-03T21:34:19;2.10;99.90
12335;DHT22;6233;51.560;9.986;2023-04-03T21:37:21;2.10;99.90
12335;DHT22;6233;51.560;9.986;2023-04-03T21:40:23;2.00;99.90
12335;DHT22;6233;51.560;9.986;2023-04-03T21:43:25;2.00;99.90
12335;DHT22;6233;51.560;9.986;2023-04-03T21:46:27;2.00;99.90
12335;DHT22;6233;51.560;9.986;2023-04-03T21:49:29;2.00;99.90